createdAt,value
2022-07-26T00:01:40.050Z,98795.66
2022-07-26T00:04:09.855Z,98791.72
2022-07-26T00:06:36.883Z,98789.50
2022-07-26T00:09:04.818Z,98797.16
2022-07-26T00:11:34.061Z,98795.66
2022-07-26T00:14:05.585Z,98788.88
2022-07-26T00:16:36.231Z,98792.25
2022-07-26T00:19:07.960Z,98787.94
2022-07-26T00:21:40.760Z,98781.66
2022-07-26T00:24:13.275Z,98776.75
2022-07-26T00:26:40.452Z,98774.03
2022-07-26T00:29:07.973Z,98783.22
2022-07-26T00:31:35.605Z,98774.84
2022-07-26T00:34:02.634Z,98781.63
2022-07-26T00:36:29.905Z,98788.00
2022-07-26T00:38:57.407Z,98786.13
2022-07-26T00:41:24.492Z,98779.94
2022-07-26T00:43:57.997Z,98785.25
2022-07-26T00:46:25.965Z,98784.63
2022-07-26T00:48:53.363Z,98788.81
2022-07-26T00:51:21.175Z,98786.09
2022-07-26T00:53:52.554Z,98793.03
2022-07-26T00:56:20.695Z,98799.28
2022-07-26T00:58:47.699Z,98804.22
2022-07-26T01:01:15.352Z,98823.91
2022-07-26T01:03:42.853Z,98887.72
2022-07-26T01:06:12.532Z,98897.00
2022-07-26T01:08:39.856Z,98910.84
2022-07-26T01:11:07.017Z,98914.81
2022-07-26T01:13:35.519Z,98923.50
2022-07-26T01:16:05.890Z,98910.56
2022-07-26T01:18:37.926Z,98896.75
2022-07-26T01:21:13.496Z,98921.59
2022-07-26T01:23:44.739Z,98913.72
2022-07-26T01:26:12.600Z,98911.47
2022-07-26T01:28:45.082Z,98916.28
2022-07-26T01:31:12.423Z,98917.44
2022-07-26T01:33:42.570Z,98924.75
2022-07-26T01:36:10.524Z,98903.44
2022-07-26T01:38:38.077Z,98897.41
2022-07-26T01:41:05.375Z,98914.66
2022-07-26T01:43:32.783Z,98934.50
2022-07-26T01:46:03.177Z,98926.88
2022-07-26T01:48:31.310Z,98895.47
2022-07-26T01:50:59.388Z,98935.16
2022-07-26T01:53:27.344Z,98952.72
2022-07-26T01:55:54.731Z,98899.97
2022-07-26T01:58:25.570Z,98936.59
2022-07-26T02:00:52.725Z,98945.69
2022-07-26T02:03:22.586Z,98962.13
2022-07-26T02:05:50.327Z,98975.34
2022-07-26T02:08:17.936Z,98967.38
2022-07-26T02:11:03.799Z,98964.22
2022-07-26T02:13:40.520Z,98979.25
2022-07-26T02:16:10.771Z,98994.19
2022-07-26T02:18:38.594Z,98982.34
2022-07-26T02:21:08.138Z,98996.13
2022-07-26T02:23:35.870Z,98989.75
2022-07-26T02:26:08.512Z,98996.75
2022-07-26T02:28:38.415Z,98993.94
2022-07-26T02:31:05.974Z,98992.44
2022-07-26T02:33:33.426Z,99001.03
2022-07-26T02:36:00.519Z,99008.78
2022-07-26T02:38:27.535Z,99010.75
2022-07-26T02:40:54.735Z,99007.69
2022-07-26T02:43:22.606Z,99004.66
2022-07-26T02:46:01.138Z,99020.63
2022-07-26T02:48:31.331Z,99015.56
2022-07-26T02:50:58.571Z,99027.50
2022-07-26T02:53:25.928Z,99032.06
2022-07-26T02:55:53.232Z,99030.25
2022-07-26T02:58:25.206Z,99034.56
2022-07-26T03:00:54.892Z,99062.41
2022-07-26T03:03:22.658Z,99064.34
2022-07-26T03:05:49.724Z,99076.59
2022-07-26T03:08:19.190Z,99074.69
2022-07-26T03:10:46.549Z,99074.81
2022-07-26T03:13:13.682Z,99079.06
2022-07-26T03:15:41.605Z,99091.53
2022-07-26T03:18:11.144Z,99104.00
2022-07-26T03:20:38.281Z,99091.75
2022-07-26T03:23:05.457Z,99103.75
2022-07-26T03:25:32.524Z,99083.91
2022-07-26T03:28:05.016Z,99085.25
2022-07-26T03:30:32.509Z,99081.72
2022-07-26T03:32:59.644Z,99073.88
2022-07-26T03:35:26.730Z,99076.56
2022-07-26T03:37:56.111Z,99065.31
2022-07-26T03:40:23.377Z,99065.91
2022-07-26T03:42:50.375Z,99056.88
2022-07-26T03:45:17.549Z,99044.13
2022-07-26T03:47:46.488Z,99052.56
2022-07-26T03:50:13.910Z,99031.41
2022-07-26T03:52:41.617Z,99034.69
2022-07-26T03:55:27.699Z,99022.53
2022-07-26T03:57:54.816Z,99020.34
2022-07-26T04:00:21.739Z,99011.16
2022-07-26T04:02:51.260Z,98998.91
2022-07-26T04:05:21.742Z,99010.16
2022-07-26T04:07:53.306Z,99031.94
2022-07-26T04:10:22.307Z,99048.22
2022-07-26T04:12:52.452Z,99043.19
2022-07-26T04:15:21.337Z,99045.88
2022-07-26T04:17:51.166Z,99050.78
2022-07-26T04:20:18.262Z,99047.06
2022-07-26T04:22:45.278Z,99057.63
2022-07-26T04:25:12.492Z,99063.97
2022-07-26T04:27:39.555Z,99073.13
2022-07-26T04:30:14.056Z,99069.09
2022-07-26T04:32:42.075Z,99083.31
2022-07-26T04:35:09.628Z,99103.88
2022-07-26T04:37:43.264Z,99103.88
2022-07-26T04:40:15.962Z,99106.56
2022-07-26T04:42:43.059Z,99101.41
2022-07-26T04:45:11.345Z,99102.25
2022-07-26T04:47:42.630Z,99105.06
2022-07-26T04:50:13.640Z,99111.59
2022-07-26T04:52:42.678Z,99104.59
2022-07-26T04:55:12.561Z,99103.88
2022-07-26T04:57:39.705Z,99117.69
2022-07-26T05:00:21.362Z,99116.94
2022-07-26T05:02:50.721Z,99125.38
2022-07-26T05:05:18.029Z,99125.25
2022-07-26T05:07:50.742Z,99116.81
2022-07-26T05:10:19.190Z,99114.59
2022-07-26T05:12:47.744Z,99116.81
2022-07-26T05:15:15.639Z,99134.03
2022-07-26T05:17:43.665Z,99133.91
2022-07-26T05:20:14.359Z,99133.91
2022-07-26T05:22:41.849Z,99124.66
2022-07-26T05:25:11.371Z,99125.97
2022-07-26T05:27:39.960Z,99125.72
2022-07-26T05:30:09.575Z,99139.50
2022-07-26T05:32:37.102Z,99138.63
2022-07-26T05:35:04.507Z,99140.44
2022-07-26T05:37:31.616Z,99140.44
2022-07-26T05:39:58.879Z,99144.00
2022-07-26T05:42:26.847Z,99151.97
2022-07-26T05:44:53.802Z,99153.44
2022-07-26T05:47:25.666Z,99161.25
2022-07-26T05:49:52.592Z,99157.44
2022-07-26T05:52:19.701Z,99165.75
2022-07-26T05:54:47.022Z,99172.84
2022-07-26T05:57:13.983Z,99178.59
2022-07-26T05:59:40.984Z,99188.53
2022-07-26T06:02:08.808Z,99192.19
2022-07-26T06:04:36.354Z,99199.56
2022-07-26T06:07:03.444Z,99213.78
2022-07-26T06:09:30.720Z,99222.97
2022-07-26T06:11:58.221Z,99224.41
2022-07-26T06:14:29.978Z,99220.13
2022-07-26T06:16:59.546Z,99206.81
2022-07-26T06:19:29.022Z,99205.94
2022-07-26T06:21:55.981Z,99204.47
2022-07-26T06:24:23.902Z,99213.63
2022-07-26T06:26:56.778Z,99213.16
2022-07-26T06:29:32.001Z,99205.75
2022-07-26T06:31:59.739Z,99218.75
2022-07-26T06:34:27.006Z,99215.72
2022-07-26T06:36:54.176Z,99219.72
2022-07-26T06:39:21.195Z,99213.44
2022-07-26T06:41:49.119Z,99210.91
2022-07-26T06:44:22.851Z,99217.41
2022-07-26T06:46:50.367Z,99224.91
2022-07-26T06:49:21.923Z,99229.06
2022-07-26T06:51:49.468Z,99227.84
2022-07-26T06:54:17.184Z,99239.00
2022-07-26T06:56:44.677Z,99242.66
2022-07-26T06:59:13.990Z,99242.53
2022-07-26T07:01:58.036Z,99245.94
2022-07-26T07:04:31.571Z,99248.16
2022-07-26T07:07:05.948Z,99246.50
2022-07-26T07:09:38.618Z,99247.16
2022-07-26T07:12:09.813Z,99239.38
2022-07-26T07:14:39.532Z,99236.13
2022-07-26T07:17:12.058Z,99241.56
2022-07-26T07:19:41.963Z,99240.00
2022-07-26T07:22:12.260Z,99232.34
2022-07-26T07:24:41.864Z,99235.81
2022-07-26T07:27:10.594Z,99228.84
2022-07-26T07:29:41.403Z,99228.69
2022-07-26T07:32:18.437Z,99229.19
2022-07-26T07:34:48.550Z,99228.34
2022-07-26T07:37:17.919Z,99227.28
2022-07-26T07:39:50.759Z,99229.50
2022-07-26T07:42:19.771Z,99232.50
2022-07-26T07:44:47.011Z,99232.22
2022-07-26T07:47:14.340Z,99239.56
2022-07-26T07:49:41.735Z,99231.66
2022-07-26T07:52:09.075Z,99233.09
2022-07-26T07:54:38.542Z,99223.53
2022-07-26T07:57:06.042Z,99233.09
2022-07-26T07:59:33.394Z,99231.38
2022-07-26T08:02:06.862Z,99231.81
2022-07-26T08:04:36.246Z,99226.50
2022-07-26T08:07:03.407Z,99223.81
2022-07-26T08:09:30.586Z,99228.28
2022-07-26T08:12:01.271Z,99222.75
2022-07-26T08:14:29.138Z,99219.34
2022-07-26T08:16:56.518Z,99218.81
2022-07-26T08:19:23.492Z,99221.34
2022-07-26T08:21:54.445Z,99227.09
2022-07-26T08:24:21.767Z,99227.59
2022-07-26T08:26:53.639Z,99231.38
2022-07-26T08:29:21.080Z,99232.81
2022-07-26T08:31:50.805Z,99238.91
2022-07-26T08:34:18.466Z,99242.03
2022-07-26T08:37:14.232Z,99240.13
2022-07-26T08:39:33.181Z,99255.56
2022-07-26T08:42:02.999Z,99255.31
2022-07-26T08:44:32.867Z,99258.47
2022-07-26T08:47:00.231Z,99261.88
2022-07-26T08:49:27.374Z,99254.06
2022-07-26T08:51:54.904Z,99266.31
2022-07-26T08:54:27.414Z,99262.53
2022-07-26T08:56:54.472Z,99270.66
2022-07-26T08:59:24.511Z,99286.00
2022-07-26T09:01:56.148Z,99287.31
2022-07-26T09:04:35.386Z,99287.97
2022-07-26T09:07:18.875Z,99300.84
2022-07-26T09:09:55.272Z,99303.53
2022-07-26T09:12:26.118Z,99313.06
2022-07-26T09:14:54.317Z,99311.00
2022-07-26T09:17:24.104Z,99309.91
2022-07-26T09:20:05.764Z,99308.81
2022-07-26T09:22:35.467Z,99307.53
2022-07-26T09:25:03.033Z,99315.69
2022-07-26T09:27:37.065Z,99308.94
2022-07-26T09:30:08.813Z,99311.84
2022-07-26T09:32:36.937Z,99315.63
2022-07-26T09:35:50.018Z,99323.19
2022-07-26T09:38:15.204Z,99326.94
2022-07-26T09:40:42.561Z,99328.75
2022-07-26T09:43:24.014Z,99327.09
2022-07-26T09:46:07.856Z,99326.31
2022-07-26T09:49:08.208Z,99309.69
2022-07-26T09:51:46.966Z,99318.75
2022-07-26T09:54:31.160Z,99329.13
2022-07-26T09:56:58.984Z,99323.06
2022-07-26T09:59:27.765Z,99327.91
2022-07-26T10:01:57.723Z,99326.72
2022-07-26T10:04:26.089Z,99335.81
2022-07-26T10:06:54.027Z,99329.63
2022-07-26T10:09:23.918Z,99330.47
2022-07-26T10:11:58.136Z,99328.06
2022-07-26T10:14:33.454Z,99325.63
2022-07-26T10:17:34.937Z,99320.59
2022-07-26T10:20:09.469Z,99321.25
2022-07-26T10:22:50.522Z,99321.75
2022-07-26T10:25:17.730Z,99324.19
2022-07-26T10:27:47.641Z,99320.94
2022-07-26T10:30:18.543Z,99333.31
2022-07-26T10:33:01.092Z,99330.47
2022-07-26T10:35:34.738Z,99327.22
2022-07-26T10:38:01.854Z,99337.06
2022-07-26T10:40:32.935Z,99325.66
2022-07-26T10:43:38.877Z,99337.28
2022-07-26T10:46:16.154Z,99332.56
2022-07-26T10:49:09.691Z,99337.38
2022-07-26T10:51:41.195Z,99344.44
2022-07-26T10:54:14.097Z,99347.81
2022-07-26T10:56:41.626Z,99343.59
2022-07-26T10:59:08.633Z,99340.19
2022-07-26T11:01:43.120Z,99327.81
2022-07-26T11:04:25.872Z,99323.44
2022-07-26T11:07:00.701Z,99331.25
2022-07-26T11:09:35.022Z,99327.06
2022-07-26T11:12:18.626Z,99314.53
2022-07-26T11:14:48.533Z,99326.44
2022-07-26T11:17:32.098Z,99323.38
2022-07-26T11:19:59.400Z,99313.97
2022-07-26T11:22:34.693Z,99314.22
2022-07-26T11:25:03.950Z,99306.47
2022-07-26T11:27:31.469Z,99310.13
2022-07-26T11:30:07.678Z,99298.63
2022-07-26T11:32:36.151Z,99305.84
2022-07-26T11:35:07.113Z,99295.19
2022-07-26T11:37:52.672Z,99287.78
2022-07-26T11:40:40.959Z,99293.59
2022-07-26T11:43:08.580Z,99291.16
2022-07-26T11:45:35.892Z,99288.44
2022-07-26T11:48:04.838Z,99289.66
2022-07-26T11:50:41.560Z,99287.13
2022-07-26T11:53:22.086Z,99291.22
2022-07-26T11:55:52.144Z,99291.88
2022-07-26T11:58:19.486Z,99281.78
2022-07-26T12:00:49.225Z,99280.44
2022-07-26T12:03:21.901Z,99273.25
2022-07-26T12:06:10.149Z,99283.47
2022-07-26T12:08:55.755Z,99288.38
2022-07-26T12:11:36.892Z,99288.28
2022-07-26T12:14:05.121Z,99305.38
2022-07-26T12:16:36.692Z,99307.41
2022-07-26T12:19:06.179Z,99315.25
2022-07-26T12:21:48.460Z,99324.31
2022-07-26T12:24:58.003Z,99335.22
2022-07-26T12:27:33.504Z,99315.19
2022-07-26T12:30:02.611Z,99323.78
2022-07-26T12:32:32.610Z,99335.69
2022-07-26T12:35:00.908Z,99327.91
2022-07-26T12:37:40.674Z,99349.16
2022-07-26T12:40:11.549Z,99357.44
2022-07-26T12:43:00.274Z,99377.59
2022-07-26T12:45:34.915Z,99384.41
2022-07-26T12:48:10.214Z,99372.72
2022-07-26T12:50:40.174Z,99371.03
2022-07-26T12:53:12.661Z,99365.03
2022-07-26T12:55:40.787Z,99377.81
2022-07-26T12:58:10.438Z,99380.50
2022-07-26T13:00:37.542Z,99382.88
2022-07-26T13:03:07.783Z,99388.22
2022-07-26T13:05:34.879Z,99377.84
2022-07-26T13:08:01.995Z,99372.66
2022-07-26T13:10:34.178Z,99375.28
2022-07-26T13:13:01.733Z,99381.34
2022-07-26T13:15:36.494Z,99400.00
2022-07-26T13:18:10.103Z,99394.50
2022-07-26T13:20:41.931Z,99392.00
2022-07-26T13:23:17.258Z,99392.00
2022-07-26T13:25:49.726Z,99393.19
2022-07-26T13:28:17.621Z,99396.16
2022-07-26T13:30:45.344Z,99397.47
2022-07-26T13:33:16.770Z,99386.81
2022-07-26T13:35:44.063Z,99385.94
2022-07-26T13:38:13.541Z,99393.78
2022-07-26T13:40:43.014Z,99378.38
2022-07-26T13:43:12.496Z,99388.28
2022-07-26T13:45:39.569Z,99388.28
2022-07-26T13:48:09.351Z,99401.34
2022-07-26T13:50:36.653Z,99401.03
2022-07-26T13:53:03.993Z,99398.22
2022-07-26T13:55:31.524Z,99389.63
2022-07-26T13:57:59.055Z,99391.44
2022-07-26T14:00:32.782Z,99401.03
2022-07-26T14:03:02.680Z,99394.50
2022-07-26T14:05:29.820Z,99391.81
2022-07-26T14:07:56.910Z,99401.09
2022-07-26T14:10:24.959Z,99416.84
2022-07-26T14:12:53.538Z,99427.19
2022-07-26T14:15:22.980Z,99420.56
2022-07-26T14:17:52.473Z,99426.63
2022-07-26T14:20:20.833Z,99418.41
2022-07-26T14:22:53.552Z,99415.00
2022-07-26T14:25:22.596Z,99411.59
2022-07-26T14:27:53.145Z,99415.88
2022-07-26T14:30:23.931Z,99415.34
2022-07-26T14:32:53.479Z,99414.13
2022-07-26T14:35:20.490Z,99400.31
2022-07-26T14:37:50.098Z,99400.44
2022-07-26T14:40:20.022Z,99389.59
2022-07-26T14:42:47.151Z,99396.53
2022-07-26T14:45:16.655Z,99399.44
2022-07-26T14:47:44.531Z,99399.59
2022-07-26T14:50:14.796Z,99393.06
2022-07-26T14:52:45.511Z,99386.25
2022-07-26T14:55:13.746Z,99388.91
2022-07-26T14:57:41.447Z,99384.63
2022-07-26T15:00:11.794Z,99390.53
2022-07-26T15:02:47.199Z,99386.63
2022-07-26T15:05:15.826Z,99393.88
2022-07-26T15:07:43.979Z,99402.63
2022-07-26T15:10:13.636Z,99395.78
2022-07-26T15:12:43.614Z,99409.44
2022-07-26T15:15:11.478Z,99396.69
2022-07-26T15:17:38.667Z,99401.47
2022-07-26T15:20:08.529Z,99397.28
2022-07-26T15:22:38.369Z,99398.72
2022-07-26T15:25:09.039Z,99403.84
2022-07-26T15:27:38.735Z,99409.34
2022-07-26T15:30:13.564Z,99410.28
2022-07-26T15:32:44.477Z,99404.19
2022-07-26T15:35:16.185Z,99401.06
2022-07-26T15:37:48.157Z,99394.22
2022-07-26T15:40:15.451Z,99393.50
2022-07-26T15:42:44.291Z,99392.22
2022-07-26T15:45:13.459Z,99398.31
2022-07-26T15:47:54.956Z,99395.38
2022-07-26T15:50:27.349Z,99404.03
2022-07-26T15:52:54.601Z,99390.88
2022-07-26T15:55:21.874Z,99392.44
2022-07-26T15:57:49.272Z,99387.78
2022-07-26T16:00:16.978Z,99386.78
2022-07-26T16:02:44.312Z,99378.69
2022-07-26T16:05:12.256Z,99371.69
2022-07-26T16:07:44.127Z,99363.31
2022-07-26T16:10:13.671Z,99363.31
2022-07-26T16:12:42.009Z,99356.72
2022-07-26T16:15:12.248Z,99365.78
2022-07-26T16:17:40.612Z,99364.50
2022-07-26T16:20:10.924Z,99363.94
2022-07-26T16:22:41.278Z,99359.31
2022-07-26T16:25:13.685Z,99350.13
2022-07-26T16:27:43.949Z,99357.75
2022-07-26T16:30:15.551Z,99354.94
2022-07-26T16:32:43.420Z,99357.31
2022-07-26T16:35:11.923Z,99350.09
2022-07-26T16:37:39.914Z,99355.09
2022-07-26T16:40:08.959Z,99354.25
2022-07-26T16:42:36.660Z,99348.75
2022-07-26T16:45:04.710Z,99351.69
2022-07-26T16:47:32.245Z,99345.88
2022-07-26T16:50:12.025Z,99344.78
2022-07-26T16:52:39.397Z,99344.38
2022-07-26T16:55:15.436Z,99344.47
2022-07-26T16:57:43.038Z,99345.72
2022-07-26T17:00:17.959Z,99342.03
2022-07-26T17:02:45.524Z,99332.09
2022-07-26T17:05:12.881Z,99333.66
2022-07-26T17:07:40.112Z,99341.69
2022-07-26T17:10:09.363Z,99346.44
2022-07-26T17:12:37.105Z,99349.34
2022-07-26T17:15:05.389Z,99347.44
2022-07-26T17:17:35.346Z,99344.81
2022-07-26T17:20:02.975Z,99344.66
2022-07-26T17:22:30.255Z,99340.56
2022-07-26T17:24:57.614Z,99341.94
2022-07-26T17:27:24.773Z,99345.81
2022-07-26T17:30:14.840Z,99347.59
2022-07-26T17:32:44.574Z,99347.19
2022-07-26T17:35:11.966Z,99347.47
2022-07-26T17:37:42.656Z,99347.19
2022-07-26T17:40:11.008Z,99358.19
2022-07-26T17:42:38.774Z,99362.91
2022-07-26T17:45:09.789Z,99360.69
2022-07-26T17:47:37.529Z,99365.28
2022-07-26T17:50:35.355Z,99368.44
2022-07-26T17:52:55.441Z,99360.03
2022-07-26T17:55:22.905Z,99363.00
2022-07-26T17:57:51.287Z,99365.09
2022-07-26T18:00:20.627Z,99360.50
2022-07-26T18:02:52.685Z,99352.38
2022-07-26T18:05:20.708Z,99358.75
2022-07-26T18:07:47.931Z,99360.56
2022-07-26T18:10:15.233Z,99354.19
2022-07-26T18:12:45.224Z,99350.91
2022-07-26T18:15:12.796Z,99358.19
2022-07-26T18:17:40.252Z,99349.44
2022-07-26T18:20:11.034Z,99357.28
2022-07-26T18:22:39.034Z,99363.19
2022-07-26T18:25:09.333Z,99363.63
2022-07-26T18:27:41.468Z,99355.34
2022-07-26T18:30:09.099Z,99359.06
2022-07-26T18:32:36.521Z,99363.63
2022-07-26T18:35:04.001Z,99361.09
2022-07-26T18:37:33.762Z,99353.56
2022-07-26T18:40:02.225Z,99362.16
2022-07-26T18:42:29.488Z,99362.44
2022-07-26T18:44:56.743Z,99361.97
2022-07-26T18:47:29.424Z,99367.84
2022-07-26T18:49:59.613Z,99365.91
2022-07-26T18:52:31.891Z,99368.88
2022-07-26T18:55:07.108Z,99376.22
2022-07-26T18:57:36.354Z,99373.69
2022-07-26T19:00:15.777Z,99368.34
2022-07-26T19:02:45.072Z,99361.81
2022-07-26T19:05:14.470Z,99367.28
2022-07-26T19:07:41.474Z,99371.25
2022-07-26T19:10:10.483Z,99374.66
2022-07-26T19:12:43.801Z,99379.69
2022-07-26T19:15:11.389Z,99379.69
2022-07-26T19:17:38.657Z,99375.41
2022-07-26T19:20:09.696Z,99375.66
2022-07-26T19:22:39.475Z,99381.13
2022-07-26T19:25:10.930Z,99377.41
2022-07-26T19:27:40.850Z,99380.06
2022-07-26T19:30:09.794Z,99381.81
2022-07-26T19:32:38.002Z,99383.44
2022-07-26T19:35:06.779Z,99379.59
2022-07-26T19:37:33.806Z,99379.44
2022-07-26T19:40:04.345Z,99391.50
2022-07-26T19:42:33.791Z,99382.63
2022-07-26T19:45:01.173Z,99381.28
2022-07-26T19:47:29.988Z,99382.47
2022-07-26T19:50:00.281Z,99381.38
2022-07-26T19:52:32.424Z,99387.41
2022-07-26T19:54:59.623Z,99383.72
2022-07-26T19:57:29.504Z,99393.31
2022-07-26T19:59:56.664Z,99391.81
2022-07-26T20:02:24.127Z,99383.41
2022-07-26T20:04:52.239Z,99399.47
2022-07-26T20:07:24.564Z,99395.19
2022-07-26T20:09:51.940Z,99396.38
2022-07-26T20:12:20.246Z,99394.28
2022-07-26T20:14:47.592Z,99391.81
2022-07-26T20:17:14.773Z,99392.22
2022-07-26T20:19:42.585Z,99387.97
2022-07-26T20:22:09.669Z,99389.25
2022-07-26T20:24:38.362Z,99382.59
2022-07-26T20:27:08.549Z,99381.84
2022-07-26T20:29:36.418Z,99381.38
2022-07-26T20:32:04.121Z,99388.13
2022-07-26T20:34:31.362Z,99378.09
2022-07-26T20:36:58.534Z,99386.34
2022-07-26T20:39:27.850Z,99382.06
2022-07-26T20:41:55.374Z,99383.91
2022-07-26T20:44:28.187Z,99385.84
2022-07-26T20:46:55.837Z,99384.16
2022-07-26T20:49:23.256Z,99385.50
2022-07-26T20:51:55.869Z,99385.16
2022-07-26T20:54:22.878Z,99387.50
2022-07-26T20:56:50.315Z,99386.25
2022-07-26T20:59:17.379Z,99397.72
2022-07-26T21:01:46.992Z,99394.00
2022-07-26T21:04:17.130Z,99391.59
2022-07-26T21:06:47.302Z,99394.81
2022-07-26T21:09:18.541Z,99398.59
2022-07-26T21:11:45.566Z,99390.63
2022-07-26T21:14:12.548Z,99383.38
2022-07-26T21:16:40.317Z,99389.56
2022-07-26T21:19:07.825Z,99384.69
2022-07-26T21:21:37.110Z,99393.81
2022-07-26T21:24:06.050Z,99394.00
2022-07-26T21:26:33.379Z,99399.94
2022-07-26T21:29:02.481Z,99390.44
2022-07-26T21:31:29.941Z,99401.66
2022-07-26T21:33:57.099Z,99402.06
2022-07-26T21:36:24.566Z,99403.97
2022-07-26T21:38:54.474Z,99403.97
2022-07-26T21:41:21.498Z,99406.94
2022-07-26T21:43:50.978Z,99409.88
2022-07-26T21:46:18.196Z,99403.69
2022-07-26T21:48:45.242Z,99404.44
2022-07-26T21:51:12.392Z,99411.59
2022-07-26T21:53:39.874Z,99416.28
2022-07-26T21:56:06.992Z,99402.88
2022-07-26T21:58:39.096Z,99408.88
2022-07-26T22:01:08.075Z,99413.75
2022-07-26T22:03:36.392Z,99407.22
2022-07-26T22:06:04.678Z,99407.81
2022-07-26T22:08:34.282Z,99405.59
2022-07-26T22:11:02.034Z,99399.22
2022-07-26T22:13:29.103Z,99398.66
2022-07-26T22:15:59.087Z,99398.81
2022-07-26T22:18:28.830Z,99397.34
2022-07-26T22:20:56.317Z,99393.63
2022-07-26T22:23:27.603Z,99402.78
2022-07-26T22:25:57.231Z,99397.66
2022-07-26T22:28:24.581Z,99405.84
2022-07-26T22:30:51.941Z,99408.81
2022-07-26T22:33:19.530Z,99414.41
2022-07-26T22:35:47.224Z,99409.22
2022-07-26T22:38:14.872Z,99421.16
2022-07-26T22:40:42.710Z,99415.22
2022-07-26T22:43:12.699Z,99422.69
2022-07-26T22:45:39.777Z,99416.53
2022-07-26T22:48:10.199Z,99416.28
2022-07-26T22:50:37.473Z,99417.03
2022-07-26T22:53:05.243Z,99407.00
2022-07-26T22:55:32.417Z,99411.44
2022-07-26T22:58:00.117Z,99407.16
2022-07-26T23:00:27.185Z,99413.47
2022-07-26T23:02:56.666Z,99407.75
2022-07-26T23:05:26.594Z,99406.41
2022-07-26T23:08:43.893Z,99405.84
2022-07-26T23:10:58.979Z,99410.84
2022-07-26T23:13:26.185Z,99396.44
2022-07-26T23:16:00.320Z,99398.09
2022-07-26T23:18:30.074Z,99399.75
2022-07-26T23:20:57.481Z,99394.47
2022-07-26T23:23:28.518Z,99402.63
2022-07-26T23:25:58.485Z,99397.03
2022-07-26T23:28:36.782Z,99407.09
2022-07-26T23:31:14.944Z,99399.75
2022-07-26T23:33:52.634Z,99389.91
2022-07-26T23:36:27.175Z,99392.84
2022-07-26T23:38:55.817Z,99385.00
2022-07-26T23:41:23.694Z,99383.72
2022-07-26T23:43:51.202Z,99383.53
2022-07-26T23:46:20.731Z,99380.56
2022-07-26T23:48:48.411Z,99380.56
2022-07-26T23:51:15.482Z,99379.81
2022-07-26T23:53:44.867Z,99377.19
2022-07-26T23:56:12.407Z,99376.59
2022-07-26T23:58:39.602Z,99375.88
